Time,TemperatureF,DewpointF,PressureIn,WindDirection,WindDirectionDegrees,WindSpeedMPH,WindSpeedGustMPH,Humidity,HourlyPrecipIn,Conditions,Clouds,dailyrainin,SoftwareType,DateUTC
2013-10-24 00:01:00,40.6,37.9,30.10,East,98,0.0,0.0,90,0.00,,SKC,0.00,VWS V14.01,2013-10-24 04:01:00,
2013-10-24 00:06:00,40.4,37.4,30.10,East,98,0.0,0.0,89,0.00,,SKC,0.00,VWS V14.01,2013-10-24 04:06:00,
2013-10-24 00:11:00,40.1,37.4,30.09,East,98,0.0,0.0,90,0.00,,SKC,0.00,VWS V14.01,2013-10-24 04:11:00,
2013-10-24 00:16:00,39.9,37.5,30.10,East,98,0.0,0.0,91,0.00,,SKC,0.00,VWS V14.01,2013-10-24 04:16:00,
2013-10-24 00:21:00,39.7,37.6,30.09,East,98,0.0,0.0,92,0.00,,SKC,0.00,VWS V14.01,2013-10-24 04:21:00,
2013-10-24 00:26:00,39.5,37.4,30.09,East,98,0.0,0.0,92,0.00,,SKC,0.00,VWS V14.01,2013-10-24 04:26:00,
2013-10-24 00:31:00,39.2,37.1,30.08,East,98,0.0,0.0,92,0.00,,SKC,0.00,VWS V14.01,2013-10-24 04:31:00,
2013-10-24 00:36:00,39.2,37.3,30.09,East,98,0.0,0.0,93,0.00,,SKC,0.00,VWS V14.01,2013-10-24 04:36:00,
2013-10-24 00:41:00,39.1,37.2,30.09,East,97,0.0,0.0,93,0.00,,SKC,0.00,VWS V14.01,2013-10-24 04:41:00,
2013-10-24 00:46:00,39.0,37.2,30.09,East,98,0.0,0.0,93,0.00,,SKC,0.00,VWS V14.01,2013-10-24 04:46:00,
2013-10-24 00:51:00,38.9,37.0,30.10,East,98,0.0,0.0,93,0.00,,SKC,0.00,VWS V14.01,2013-10-24 04:51:00,
2013-10-24 00:56:00,38.9,37.3,30.10,East,98,0.0,0.0,94,0.00,,SKC,0.00,VWS V14.01,2013-10-24 04:56:00,
2013-10-24 01:01:00,38.8,37.2,30.10,East,98,0.0,0.0,94,0.00,,SKC,0.00,VWS V14.01,2013-10-24 05:01:00,
2013-10-24 01:06:00,38.6,37.0,30.10,East,98,0.0,0.0,94,0.00,,SKC,0.00,VWS V14.01,2013-10-24 05:06:00,
2013-10-24 01:11:00,38.4,36.8,30.10,East,98,0.0,0.0,94,0.00,,SKC,0.00,VWS V14.01,2013-10-24 05:11:00,
2013-10-24 01:16:00,38.2,36.6,30.10,East,98,0.0,0.0,94,0.00,,SKC,0.00,VWS V14.01,2013-10-24 05:16:00,
2013-10-24 01:21:00,38.0,36.4,30.10,East,98,0.0,0.0,94,0.00,,SKC,0.00,VWS V14.01,2013-10-24 05:21:00,
2013-10-24 01:26:00,37.9,36.3,30.10,East,98,0.0,0.0,94,0.00,,SKC,0.00,VWS V14.01,2013-10-24 05:26:00,
2013-10-24 01:31:00,37.8,36.2,30.11,East,98,0.0,0.0,94,0.00,,SKC,0.00,VWS V14.01,2013-10-24 05:31:00,
2013-10-24 01:36:00,38.0,36.7,30.11,East,97,0.0,0.0,95,0.00,,SKC,0.00,VWS V14.01,2013-10-24 05:36:00,
2013-10-24 01:42:00,37.8,36.5,30.11,East,98,0.0,0.0,95,0.00,,SKC,0.00,VWS V14.01,2013-10-24 05:42:00,
2013-10-24 01:46:00,37.7,36.4,30.11,East,97,0.0,0.0,95,0.00,,SKC,0.00,VWS V14.01,2013-10-24 05:46:00,
2013-10-24 01:52:00,37.6,36.3,30.11,East,98,0.0,0.0,95,0.00,,SKC,0.00,VWS V14.01,2013-10-24 05:52:00,
2013-10-24 01:56:00,37.9,36.9,30.11,East,98,0.0,0.0,96,0.00,,SKC,0.00,VWS V14.01,2013-10-24 05:56:00,
2013-10-24 02:02:00,37.9,36.6,30.11,East,98,0.0,0.0,95,0.00,,SKC,0.00,VWS V14.01,2013-10-24 06:02:00,
2013-10-24 02:07:00,37.8,36.5,30.11,East,97,0.0,0.0,95,0.00,,SKC,0.00,VWS V14.01,2013-10-24 06:07:00,
2013-10-24 02:12:00,37.7,36.4,30.12,East,98,0.0,0.0,95,0.00,,SKC,0.00,VWS V14.01,2013-10-24 06:12:00,
2013-10-24 02:17:00,37.5,36.2,30.12,East,98,0.0,0.0,95,0.00,,SKC,0.00,VWS V14.01,2013-10-24 06:17:00,
2013-10-24 02:22:00,37.2,35.9,30.12,East,98,0.0,0.0,95,0.00,,SKC,0.00,VWS V14.01,2013-10-24 06:22:00,
2013-10-24 02:27:00,37.1,35.8,30.12,East,98,0.0,0.0,95,0.00,,SKC,0.00,VWS V14.01,2013-10-24 06:27:00,
2013-10-24 02:32:00,37.1,36.1,30.12,East,97,0.0,0.0,96,0.00,,SKC,0.00,VWS V14.01,2013-10-24 06:32:00,
2013-10-24 02:37:00,37.1,36.1,30.12,East,98,0.0,0.0,96,0.00,,SKC,0.00,VWS V14.01,2013-10-24 06:37:00,
2013-10-24 02:42:00,37.0,36.0,30.12,East,98,0.0,0.0,96,0.00,,SKC,0.00,VWS V14.01,2013-10-24 06:42:00,
2013-10-24 02:47:00,36.8,35.8,30.12,East,98,0.0,0.0,96,0.00,,SKC,0.00,VWS V14.01,2013-10-24 06:47:00,
2013-10-24 02:52:00,36.5,35.5,30.12,East,97,0.0,0.0,96,0.00,,SKC,0.00,VWS V14.01,2013-10-24 06:52:00,
2013-10-24 02:57:00,36.5,35.5,30.12,East,98,0.0,0.0,96,0.00,,SKC,0.00,VWS V14.01,2013-10-24 06:57:00,
2013-10-24 03:02:00,36.9,36.1,30.12,East,98,0.0,0.0,97,0.00,,SKC,0.00,VWS V14.01,2013-10-24 07:02:00,
2013-10-24 03:07:00,36.9,36.1,30.13,East,98,0.0,0.0,97,0.00,,SKC,0.00,VWS V14.01,2013-10-24 07:07:00,
2013-10-24 03:12:00,37.2,36.4,30.13,East,97,0.0,0.0,97,0.00,,SKC,0.00,VWS V14.01,2013-10-24 07:12:00,
2013-10-24 03:17:00,37.2,36.4,30.13,East,98,0.0,0.0,97,0.00,,SKC,0.00,VWS V14.01,2013-10-24 07:17:00,
2013-10-24 03:22:00,37.4,36.6,30.13,East,97,0.0,0.0,97,0.00,,SKC,0.00,VWS V14.01,2013-10-24 07:22:00,
2013-10-24 03:27:00,37.4,36.6,30.13,East,98,0.0,0.0,97,0.00,,SKC,0.00,VWS V14.01,2013-10-24 07:27:00,
2013-10-24 03:32:00,37.3,36.5,30.13,East,98,0.0,0.0,97,0.00,,SKC,0.00,VWS V14.01,2013-10-24 07:32:00,
2013-10-24 03:37:00,37.2,36.4,30.13,East,97,0.0,0.0,97,0.00,,SKC,0.00,VWS V14.01,2013-10-24 07:37:00,
2013-10-24 03:42:00,37.1,36.3,30.13,East,97,0.0,0.0,97,0.00,,SKC,0.00,VWS V14.01,2013-10-24 07:42:00,
2013-10-24 03:47:00,37.0,36.2,30.13,East,98,0.0,0.0,97,0.00,,SKC,0.00,VWS V14.01,2013-10-24 07:47:00,
2013-10-24 03:52:00,37.0,36.2,30.13,East,98,0.0,0.0,97,0.00,,SKC,0.00,VWS V14.01,2013-10-24 07:52:00,
2013-10-24 03:57:00,36.8,36.0,30.12,East,98,0.0,0.0,97,0.00,,SKC,0.00,VWS V14.01,2013-10-24 07:57:00,
2013-10-24 04:02:00,36.7,35.9,30.13,East,98,0.0,0.0,97,0.00,,SKC,0.00,VWS V14.01,2013-10-24 08:02:00,
2013-10-24 04:07:00,36.8,36.0,30.13,East,98,0.0,0.0,97,0.00,,SKC,0.00,VWS V14.01,2013-10-24 08:07:00,
2013-10-24 04:12:00,36.7,35.9,30.13,East,98,0.0,0.0,97,0.00,,SKC,0.00,VWS V14.01,2013-10-24 08:12:00,
2013-10-24 04:17:00,36.7,35.9,30.14,East,98,0.0,0.0,97,0.00,,SKC,0.00,VWS V14.01,2013-10-24 08:17:00,
2013-10-24 04:22:00,36.6,35.8,30.14,East,97,0.0,0.0,97,0.00,,SKC,0.00,VWS V14.01,2013-10-24 08:22:00,
2013-10-24 04:27:00,36.4,35.6,30.13,East,98,0.0,0.0,97,0.00,,SKC,0.00,VWS V14.01,2013-10-24 08:27:00,
2013-10-24 04:32:00,36.3,35.5,30.13,East,98,0.0,0.0,97,0.00,,SKC,0.00,VWS V14.01,2013-10-24 08:32:00,
2013-10-24 04:37:00,36.1,35.3,30.13,East,98,0.0,0.0,97,0.00,,SKC,0.00,VWS V14.01,2013-10-24 08:37:00,
2013-10-24 04:42:00,36.0,35.2,30.14,East,98,0.0,0.0,97,0.00,,SKC,0.00,VWS V14.01,2013-10-24 08:42:00,
2013-10-24 04:47:00,36.3,35.5,30.14,East,98,0.0,0.0,97,0.00,,SKC,0.00,VWS V14.01,2013-10-24 08:47:00,
2013-10-24 04:52:00,36.6,35.8,30.14,East,97,0.0,0.0,97,0.00,,SKC,0.00,VWS V14.01,2013-10-24 08:52:00,
2013-10-24 04:57:00,36.6,35.8,30.14,East,97,0.0,0.0,97,0.00,,SKC,0.00,VWS V14.01,2013-10-24 08:57:00,
2013-10-24 05:02:00,36.5,35.7,30.14,East,98,0.0,0.0,97,0.00,,SKC,0.00,VWS V14.01,2013-10-24 09:02:00,
2013-10-24 05:07:00,36.3,35.5,30.15,East,98,0.0,0.0,97,0.00,,SKC,0.00,VWS V14.01,2013-10-24 09:07:00,
2013-10-24 05:12:00,36.2,35.4,30.15,East,98,0.0,0.0,97,0.00,,SKC,0.00,VWS V14.01,2013-10-24 09:12:00,
2013-10-24 05:17:00,36.1,35.3,30.15,East,98,0.0,0.0,97,0.00,,SKC,0.00,VWS V14.01,2013-10-24 09:17:00,
2013-10-24 05:22:00,36.1,35.3,30.16,East,98,0.0,0.0,97,0.00,,SKC,0.00,VWS V14.01,2013-10-24 09:22:00,
2013-10-24 05:27:00,36.2,35.4,30.16,East,98,0.0,0.0,97,0.00,,SKC,0.00,VWS V14.01,2013-10-24 09:27:00,
2013-10-24 05:32:00,36.2,35.7,30.16,East,98,0.0,0.0,98,0.00,,SKC,0.00,VWS V14.01,2013-10-24 09:32:00,
2013-10-24 05:37:00,36.2,35.7,30.16,East,97,0.0,0.0,98,0.00,,SKC,0.00,VWS V14.01,2013-10-24 09:37:00,
2013-10-24 05:42:00,36.1,35.3,30.16,East,98,0.0,0.0,97,0.00,,SKC,0.00,VWS V14.01,2013-10-24 09:42:00,
2013-10-24 05:47:00,36.0,35.2,30.16,East,97,0.0,0.0,97,0.00,,SKC,0.00,VWS V14.01,2013-10-24 09:47:00,
2013-10-24 05:52:00,35.9,35.1,30.16,East,98,0.0,0.0,97,0.00,,SKC,0.00,VWS V14.01,2013-10-24 09:52:00,
2013-10-24 05:57:00,35.9,35.1,30.16,East,97,0.0,0.0,97,0.00,,SKC,0.00,VWS V14.01,2013-10-24 09:57:00,
2013-10-24 06:02:00,35.8,35.0,30.17,East,97,0.0,0.0,97,0.00,,SKC,0.00,VWS V14.01,2013-10-24 10:02:00,
2013-10-24 06:07:00,36.1,35.6,30.17,East,98,0.0,0.0,98,0.00,,SKC,0.00,VWS V14.01,2013-10-24 10:07:00,
2013-10-24 06:12:00,36.5,36.0,30.17,East,98,0.0,0.0,98,0.00,,SKC,0.00,VWS V14.01,2013-10-24 10:12:00,
2013-10-24 06:17:00,36.9,36.4,30.17,East,98,0.0,1.0,98,0.00,,SKC,0.00,VWS V14.01,2013-10-24 10:17:00,
2013-10-24 06:22:00,37.1,36.6,30.17,East,98,0.0,1.0,98,0.00,,SKC,0.00,VWS V14.01,2013-10-24 10:22:00,
2013-10-24 06:27:00,37.2,36.7,30.17,East,99,0.0,0.0,98,0.00,,SKC,0.00,VWS V14.01,2013-10-24 10:27:00,
2013-10-24 06:32:00,37.2,36.7,30.17,East,98,0.0,0.0,98,0.00,,SKC,0.00,VWS V14.01,2013-10-24 10:32:00,
2013-10-24 06:37:00,37.1,36.6,30.18,East,99,0.0,0.0,98,0.00,,SKC,0.00,VWS V14.01,2013-10-24 10:37:00,
2013-10-24 06:42:00,36.9,36.4,30.17,East,98,0.0,0.0,98,0.00,,SKC,0.00,VWS V14.01,2013-10-24 10:42:00,
2013-10-24 06:47:00,36.8,36.3,30.17,East,99,0.0,0.0,98,0.00,,SKC,0.00,VWS V14.01,2013-10-24 10:47:00,
2013-10-24 06:52:00,36.8,36.3,30.18,East,98,0.0,0.0,98,0.00,,SKC,0.00,VWS V14.01,2013-10-24 10:52:00,
2013-10-24 06:57:00,36.5,35.7,30.18,East,98,0.0,0.0,97,0.00,,SKC,0.00,VWS V14.01,2013-10-24 10:57:00,
2013-10-24 07:02:00,36.3,35.5,30.18,East,99,0.0,0.0,97,0.00,,SKC,0.00,VWS V14.01,2013-10-24 11:02:00,
2013-10-24 07:07:00,36.3,35.5,30.19,East,98,0.0,0.0,97,0.00,,SKC,0.00,VWS V14.01,2013-10-24 11:07:00,
2013-10-24 07:12:00,36.2,35.4,30.19,East,98,0.0,0.0,97,0.00,,SKC,0.00,VWS V14.01,2013-10-24 11:12:00,
2013-10-24 07:17:00,36.0,35.2,30.19,East,98,0.0,0.0,97,0.00,,SKC,0.00,VWS V14.01,2013-10-24 11:17:00,
2013-10-24 07:22:00,35.9,35.1,30.19,East,98,0.0,0.0,97,0.00,,SKC,0.00,VWS V14.01,2013-10-24 11:22:00,
2013-10-24 07:27:00,35.9,35.1,30.19,East,98,0.0,0.0,97,0.00,,SKC,0.00,VWS V14.01,2013-10-24 11:27:00,
2013-10-24 07:32:00,35.9,35.1,30.19,East,98,0.0,0.0,97,0.00,,SKC,0.00,VWS V14.01,2013-10-24 11:32:00,
2013-10-24 07:37:00,35.9,35.4,30.19,East,98,0.0,0.0,98,0.00,,SKC,0.00,VWS V14.01,2013-10-24 11:37:00,
2013-10-24 07:42:00,35.9,35.4,30.19,East,99,0.0,0.0,98,0.00,,SKC,0.00,VWS V14.01,2013-10-24 11:42:00,
2013-10-24 07:47:00,35.9,35.4,30.19,East,98,0.0,0.0,98,0.00,,SKC,0.00,VWS V14.01,2013-10-24 11:47:00,
2013-10-24 07:52:00,35.8,35.3,30.19,East,98,0.0,0.0,98,0.00,,SKC,0.00,VWS V14.01,2013-10-24 11:52:00,
2013-10-24 07:57:00,36.0,35.5,30.19,East,98,0.0,0.0,98,0.00,,SKC,0.00,VWS V14.01,2013-10-24 11:57:00,
2013-10-24 08:02:00,36.1,35.6,30.19,East,98,0.0,0.0,98,0.00,,SCT070,0.00,VWS V14.01,2013-10-24 12:02:00,
2013-10-24 08:07:00,36.0,35.5,30.18,East,99,0.0,0.0,98,0.00,,SCT070,0.00,VWS V14.01,2013-10-24 12:07:00,
2013-10-24 08:12:00,36.1,35.6,30.19,East,99,0.0,0.0,98,0.00,,SCT070,0.00,VWS V14.01,2013-10-24 12:12:00,
2013-10-24 08:17:00,36.2,35.7,30.19,East,98,0.0,0.0,98,0.00,,SCT070,0.00,VWS V14.01,2013-10-24 12:17:00,
2013-10-24 08:22:00,36.2,35.7,30.19,East,98,0.0,0.0,98,0.00,,SCT070,0.00,VWS V14.01,2013-10-24 12:22:00,
2013-10-24 08:27:00,36.3,35.8,30.20,East,98,0.0,0.0,98,0.00,,SCT070,0.00,VWS V14.01,2013-10-24 12:27:00,
2013-10-24 08:32:00,36.5,36.0,30.20,East,98,0.0,0.0,98,0.00,,SCT070,0.00,VWS V14.01,2013-10-24 12:32:00,
2013-10-24 08:37:00,36.6,36.1,30.20,East,99,0.0,0.0,98,0.00,,SCT070,0.00,VWS V14.01,2013-10-24 12:37:00,
2013-10-24 08:42:00,36.7,36.2,30.20,East,98,0.0,0.0,98,0.00,,SCT070,0.00,VWS V14.01,2013-10-24 12:42:00,
2013-10-24 08:47:00,37.0,36.5,30.21,East,98,0.0,0.0,98,0.00,,SCT070,0.00,VWS V14.01,2013-10-24 12:47:00,
2013-10-24 08:52:00,37.2,36.7,30.21,East,98,0.0,0.0,98,0.00,,SCT070,0.00,VWS V14.01,2013-10-24 12:52:00,
2013-10-24 08:57:00,37.6,37.1,30.21,East,99,0.0,0.0,98,0.00,,SCT070,0.00,VWS V14.01,2013-10-24 12:57:00,
2013-10-24 09:02:00,38.0,37.5,30.21,South,181,0.0,1.0,98,0.00,,SCT070,0.00,VWS V14.01,2013-10-24 13:02:00,
2013-10-24 09:07:00,38.4,37.9,30.21,South,177,0.0,0.0,98,0.00,,SCT070,0.00,VWS V14.01,2013-10-24 13:07:00,
2013-10-24 09:12:00,38.8,38.3,30.21,South,176,0.0,0.0,98,0.00,,SCT070,0.00,VWS V14.01,2013-10-24 13:12:00,
2013-10-24 09:17:00,39.2,38.7,30.22,South,176,0.0,0.0,98,0.00,,SCT070,0.00,VWS V14.01,2013-10-24 13:17:00,
2013-10-24 09:22:00,39.5,39.0,30.21,South,176,0.0,0.0,98,0.00,,SCT070,0.00,VWS V14.01,2013-10-24 13:22:00,
2013-10-24 09:27:00,40.0,39.5,30.21,South,176,0.0,0.0,98,0.00,,SCT070,0.00,VWS V14.01,2013-10-24 13:27:00,
2013-10-24 09:32:00,40.4,39.9,30.21,South,177,0.0,0.0,98,0.00,,SCT070,0.00,VWS V14.01,2013-10-24 13:32:00,
2013-10-24 09:37:00,40.8,40.3,30.21,WSW,242,0.0,0.0,98,0.00,,SCT070,0.00,VWS V14.01,2013-10-24 13:37:00,
2013-10-24 09:42:00,41.1,40.3,30.21,WSW,240,0.0,1.0,97,0.00,,SCT070,0.00,VWS V14.01,2013-10-24 13:42:00,
2013-10-24 09:47:00,41.4,39.8,30.21,WSW,241,0.0,0.0,94,0.00,,SCT070,0.00,VWS V14.01,2013-10-24 13:47:00,
2013-10-24 09:52:00,42.2,39.5,30.22,WSW,242,0.0,1.0,90,0.00,,SCT070,0.00,VWS V14.01,2013-10-24 13:52:00,
2013-10-24 09:57:00,43.0,39.7,30.22,WSW,243,0.0,0.0,88,0.00,,SCT070,0.00,VWS V14.01,2013-10-24 13:57:00,
2013-10-24 10:02:00,43.5,40.2,30.22,NNE,22,1.0,1.0,88,0.00,,SKC,0.00,VWS V14.01,2013-10-24 14:02:00,
2013-10-24 10:07:00,44.2,40.3,30.22,West,269,0.0,0.0,86,0.00,,SKC,0.00,VWS V14.01,2013-10-24 14:07:00,
2013-10-24 10:12:00,44.8,40.3,30.22,West,266,0.0,1.0,84,0.00,,SKC,0.00,VWS V14.01,2013-10-24 14:12:00,
2013-10-24 10:17:00,45.5,39.7,30.22,WSW,249,0.0,1.0,80,0.00,,SKC,0.00,VWS V14.01,2013-10-24 14:17:00,
2013-10-24 10:22:00,46.1,39.6,30.22,WSW,254,0.0,2.0,78,0.00,,SKC,0.00,VWS V14.01,2013-10-24 14:22:00,
2013-10-24 10:27:00,46.7,39.9,30.22,WSW,254,0.0,0.0,77,0.00,,SKC,0.00,VWS V14.01,2013-10-24 14:27:00,
2013-10-24 10:32:00,47.2,40.4,30.22,NW,323,0.0,1.0,77,0.00,,SKC,0.00,VWS V14.01,2013-10-24 14:32:00,
2013-10-24 10:37:00,47.7,40.5,30.21,NW,319,0.0,0.0,76,0.00,,SKC,0.00,VWS V14.01,2013-10-24 14:37:00,
2013-10-24 10:42:00,48.2,40.3,30.21,South,181,0.0,1.0,74,0.00,,SKC,0.00,VWS V14.01,2013-10-24 14:42:00,
2013-10-24 10:47:00,48.7,40.8,30.22,South,187,0.0,0.0,74,0.00,,SKC,0.00,VWS V14.01,2013-10-24 14:47:00,
2013-10-24 10:52:00,49.1,40.5,30.21,ENE,67,0.0,2.0,72,0.00,,SKC,0.00,VWS V14.01,2013-10-24 14:52:00,
2013-10-24 10:57:00,49.5,40.5,30.21,NNE,29,0.0,0.0,71,0.00,,SKC,0.00,VWS V14.01,2013-10-24 14:57:00,
2013-10-24 11:02:00,49.7,40.3,30.21,NNW,327,0.0,1.0,70,0.00,,SCT080,0.00,VWS V14.01,2013-10-24 15:02:00,
2013-10-24 11:07:00,49.9,39.8,30.21,NE,44,0.0,0.0,68,0.00,,SCT080,0.00,VWS V14.01,2013-10-24 15:07:00,
2013-10-24 11:12:00,50.0,39.9,30.21,East,82,1.0,4.0,68,0.00,,SCT080,0.00,VWS V14.01,2013-10-24 15:12:00,
2013-10-24 11:17:00,50.6,40.4,30.21,ESE,114,0.0,1.0,68,0.00,,SCT080,0.00,VWS V14.01,2013-10-24 15:17:00,
2013-10-24 11:22:00,51.6,40.2,30.21,NW,309,0.0,1.0,65,0.00,,SCT080,0.00,VWS V14.01,2013-10-24 15:22:00,
2013-10-24 11:27:00,52.2,40.8,30.22,WSW,256,0.0,2.0,65,0.00,,SCT080,0.00,VWS V14.01,2013-10-24 15:27:00,
2013-10-24 11:32:00,52.8,40.6,30.21,NW,308,0.0,2.0,63,0.00,,SCT080,0.00,VWS V14.01,2013-10-24 15:32:00,
2013-10-24 11:37:00,53.0,40.8,30.21,NE,39,0.0,2.0,63,0.00,,SCT080,0.00,VWS V14.01,2013-10-24 15:37:00,
2013-10-24 11:42:00,53.6,41.7,30.22,North,1,1.0,2.0,64,0.00,,SCT080,0.00,VWS V14.01,2013-10-24 15:42:00,
2013-10-24 11:47:00,53.8,40.3,30.21,SE,139,0.0,2.0,60,0.00,,SCT080,0.00,VWS V14.01,2013-10-24 15:47:00,
2013-10-24 11:52:00,54.1,40.5,30.22,WNW,287,0.0,2.0,60,0.00,,SCT080,0.00,VWS V14.01,2013-10-24 15:52:00,
2013-10-24 11:57:00,54.1,40.5,30.21,NNE,16,0.0,0.0,60,0.00,,SCT080,0.00,VWS V14.01,2013-10-24 15:57:00,
2013-10-24 12:02:00,54.5,40.5,30.21,NNW,327,1.0,2.0,59,0.00,,BKN060,0.00,VWS V14.01,2013-10-24 16:02:00,
2013-10-24 12:07:00,54.9,39.5,30.22,NE,41,1.0,2.0,56,0.00,,BKN060,0.00,VWS V14.01,2013-10-24 16:07:00,
2013-10-24 12:12:00,54.8,41.2,30.22,NNW,329,0.0,3.0,60,0.00,,BKN060,0.00,VWS V14.01,2013-10-24 16:12:00,
2013-10-24 12:17:00,54.9,40.4,30.21,WSW,250,1.0,1.0,58,0.00,,BKN060,0.00,VWS V14.01,2013-10-24 16:17:00,
2013-10-24 12:22:00,55.2,40.2,30.20,NW,320,0.0,1.0,57,0.00,,BKN060,0.00,VWS V14.01,2013-10-24 16:22:00,
2013-10-24 12:27:00,55.6,41.1,30.20,WSW,252,1.0,2.0,58,0.00,,BKN060,0.00,VWS V14.01,2013-10-24 16:27:00,
2013-10-24 12:32:00,56.1,40.2,30.20,WSW,253,0.0,2.0,55,0.00,,BKN060,0.00,VWS V14.01,2013-10-24 16:32:00,
2013-10-24 12:37:00,56.5,41.5,30.20,North,358,0.0,2.0,57,0.00,,BKN060,0.00,VWS V14.01,2013-10-24 16:37:00,
2013-10-24 12:42:00,57.1,41.1,30.20,SE,139,0.0,3.0,55,0.00,,BKN060,0.00,VWS V14.01,2013-10-24 16:42:00,
2013-10-24 12:47:00,57.2,40.7,30.20,SW,215,0.0,2.0,54,0.00,,BKN060,0.00,VWS V14.01,2013-10-24 16:47:00,
2013-10-24 12:52:00,57.5,41.0,30.20,WSW,250,1.0,2.0,54,0.00,,BKN060,0.00,VWS V14.01,2013-10-24 16:52:00,
2013-10-24 12:57:00,57.7,40.7,30.20,SW,229,0.0,3.0,53,0.00,,BKN060,0.00,VWS V14.01,2013-10-24 16:57:00,
2013-10-24 13:02:00,58.0,41.0,30.19,WSW,256,0.0,2.0,53,0.00,,SCT070,0.00,VWS V14.01,2013-10-24 17:02:00,
2013-10-24 13:07:00,58.0,41.0,30.19,ENE,65,0.0,2.0,53,0.00,,SCT070,0.00,VWS V14.01,2013-10-24 17:07:00,
2013-10-24 13:12:00,58.5,41.9,30.19,NNE,12,0.0,3.0,54,0.00,,SCT070,0.00,VWS V14.01,2013-10-24 17:12:00,
2013-10-24 13:17:00,58.8,41.2,30.18,NW,309,0.0,1.0,52,0.00,,SCT070,0.00,VWS V14.01,2013-10-24 17:17:00,
2013-10-24 13:22:00,58.6,40.5,30.18,NE,41,1.0,3.0,51,0.00,,SCT070,0.00,VWS V14.01,2013-10-24 17:22:00,
2013-10-24 13:27:00,58.6,41.5,30.18,West,264,1.0,2.0,53,0.00,,SCT070,0.00,VWS V14.01,2013-10-24 17:27:00,
2013-10-24 13:32:00,59.4,40.2,30.18,West,264,0.0,4.0,49,0.00,,SCT070,0.00,VWS V14.01,2013-10-24 17:32:00,
2013-10-24 13:37:00,60.1,41.4,30.18,SW,215,0.0,2.0,50,0.00,,SCT070,0.00,VWS V14.01,2013-10-24 17:37:00,
2013-10-24 13:42:00,60.5,41.3,30.18,WSW,245,0.0,2.0,49,0.00,,SCT070,0.00,VWS V14.01,2013-10-24 17:42:00,
2013-10-24 13:47:00,60.4,40.1,30.17,NE,43,0.0,0.0,47,0.00,,SCT070,0.00,VWS V14.01,2013-10-24 17:47:00,
2013-10-24 13:52:00,60.5,40.2,30.17,WSW,246,2.0,2.0,47,0.00,,SCT070,0.00,VWS V14.01,2013-10-24 17:52:00,
2013-10-24 13:57:00,60.9,40.0,30.17,WSW,248,2.0,2.0,46,0.00,,SCT070,0.00,VWS V14.01,2013-10-24 17:57:00,
2013-10-24 14:02:00,60.9,37.7,30.17,SW,221,0.0,2.0,42,0.00,,BKN070,0.00,VWS V14.01,2013-10-24 18:02:00,
2013-10-24 14:07:00,61.1,40.7,30.16,WNW,284,1.0,1.0,47,0.00,,BKN070,0.00,VWS V14.01,2013-10-24 18:07:00,
2013-10-24 14:12:00,60.9,40.0,30.16,NE,39,0.0,3.0,46,0.00,,BKN070,0.00,VWS V14.01,2013-10-24 18:12:00,
2013-10-24 14:17:00,60.9,40.0,30.16,West,264,1.0,1.0,46,0.00,,BKN070,0.00,VWS V14.01,2013-10-24 18:17:00,
2013-10-24 14:22:00,61.1,40.7,30.16,East,98,0.0,1.0,47,0.00,,BKN070,0.00,VWS V14.01,2013-10-24 18:22:00,
2013-10-24 14:27:00,60.7,40.4,30.16,West,267,0.0,4.0,47,0.00,,BKN070,0.00,VWS V14.01,2013-10-24 18:27:00,
2013-10-24 14:32:00,60.6,39.2,30.16,NNW,345,0.0,2.0,45,0.00,,BKN070,0.00,VWS V14.01,2013-10-24 18:32:00,
2013-10-24 14:37:00,60.3,40.5,30.16,SW,229,0.0,2.0,48,0.00,,BKN070,0.00,VWS V14.01,2013-10-24 18:37:00,
2013-10-24 14:42:00,60.3,40.0,30.16,WNW,283,0.0,3.0,47,0.00,,BKN070,0.00,VWS V14.01,2013-10-24 18:42:00,
2013-10-24 14:47:00,60.3,39.5,30.16,SW,226,1.0,2.0,46,0.00,,BKN070,0.00,VWS V14.01,2013-10-24 18:47:00,
2013-10-24 14:52:00,60.1,38.7,30.15,NW,315,1.0,2.0,45,0.00,,BKN070,0.00,VWS V14.01,2013-10-24 18:52:00,
2013-10-24 14:57:00,60.4,41.2,30.15,SSW,210,0.0,1.0,49,0.00,,BKN070,0.00,VWS V14.01,2013-10-24 18:57:00,
2013-10-24 15:02:00,61.5,41.1,30.15,SW,219,0.0,3.0,47,0.00,,BKN070,0.00,VWS V14.01,2013-10-24 19:02:00,
2013-10-24 15:07:00,61.4,38.7,30.15,SW,232,0.0,4.0,43,0.00,,BKN070,0.00,VWS V14.01,2013-10-24 19:07:00,
2013-10-24 15:12:00,61.8,38.5,30.15,WSW,240,0.0,3.0,42,0.00,,BKN070,0.00,VWS V14.01,2013-10-24 19:12:00,
2013-10-24 15:17:00,61.6,38.9,30.15,SW,219,0.0,4.0,43,0.00,,BKN070,0.00,VWS V14.01,2013-10-24 19:17:00,
2013-10-24 15:22:00,62.0,41.0,30.15,SW,229,0.0,4.0,46,0.00,,BKN070,0.00,VWS V14.01,2013-10-24 19:22:00,
2013-10-24 15:27:00,62.3,38.9,30.15,West,264,0.0,2.0,42,0.00,,BKN070,0.00,VWS V14.01,2013-10-24 19:27:00,
2013-10-24 15:32:00,61.7,38.4,30.14,NE,39,0.0,3.0,42,0.00,,BKN070,0.00,VWS V14.01,2013-10-24 19:32:00,
2013-10-24 15:37:00,61.7,40.2,30.14,NNE,18,0.0,1.0,45,0.00,,BKN070,0.00,VWS V14.01,2013-10-24 19:37:00,
2013-10-24 15:42:00,62.3,40.1,30.14,SW,218,1.0,3.0,44,0.00,,BKN070,0.00,VWS V14.01,2013-10-24 19:42:00,
2013-10-24 15:47:00,62.8,38.8,30.14,SW,216,2.0,3.0,41,0.00,,BKN070,0.00,VWS V14.01,2013-10-24 19:47:00,
2013-10-24 15:52:00,63.0,39.0,30.14,SW,233,0.0,2.0,41,0.00,,BKN070,0.00,VWS V14.01,2013-10-24 19:52:00,
2013-10-24 15:57:00,63.0,37.7,30.14,SW,236,0.0,3.0,39,0.00,,BKN070,0.00,VWS V14.01,2013-10-24 19:57:00,
2013-10-24 16:02:00,63.3,38.0,30.14,SSW,205,0.0,2.0,39,0.00,,BKN065,0.00,VWS V14.01,2013-10-24 20:02:00,
2013-10-24 16:07:00,63.5,39.4,30.13,SW,219,2.0,3.0,41,0.00,,BKN065,0.00,VWS V14.01,2013-10-24 20:07:00,
2013-10-24 16:12:00,63.0,38.3,30.13,SW,228,0.0,4.0,40,0.00,,BKN065,0.00,VWS V14.01,2013-10-24 20:12:00,
2013-10-24 16:17:00,63.1,39.0,30.13,West,260,2.0,4.0,41,0.00,,BKN065,0.00,VWS V14.01,2013-10-24 20:17:00,
2013-10-24 16:22:00,63.3,39.2,30.13,SSE,152,1.0,3.0,41,0.00,,BKN065,0.00,VWS V14.01,2013-10-24 20:22:00,
2013-10-24 16:27:00,63.5,38.8,30.13,WSW,253,0.0,3.0,40,0.00,,BKN065,0.00,VWS V14.01,2013-10-24 20:27:00,
2013-10-24 16:32:00,63.9,39.1,30.13,WSW,243,1.0,3.0,40,0.00,,BKN065,0.00,VWS V14.01,2013-10-24 20:32:00,
2013-10-24 16:37:00,64.5,39.7,30.13,SW,224,2.0,2.0,40,0.00,,BKN065,0.00,VWS V14.01,2013-10-24 20:37:00,
2013-10-24 16:42:00,64.4,39.6,30.13,SW,236,4.0,4.0,40,0.00,,BKN065,0.00,VWS V14.01,2013-10-24 20:42:00,
2013-10-24 16:47:00,64.0,39.8,30.13,North,4,0.0,3.0,41,0.00,,BKN065,0.00,VWS V14.01,2013-10-24 20:47:00,
2013-10-24 16:52:00,64.3,40.1,30.13,WSW,250,0.0,1.0,41,0.00,,BKN065,0.00,VWS V14.01,2013-10-24 20:52:00,
2013-10-24 16:57:00,64.2,36.7,30.13,WSW,243,3.0,4.0,36,0.00,,BKN065,0.00,VWS V14.01,2013-10-24 20:57:00,
2013-10-24 17:02:00,64.1,38.7,30.13,WSW,258,0.0,3.0,39,0.00,,SCT065,0.00,VWS V14.01,2013-10-24 21:02:00,
2013-10-24 17:07:00,64.1,37.3,30.13,SW,230,1.0,4.0,37,0.00,,SCT065,0.00,VWS V14.01,2013-10-24 21:07:00,
2013-10-24 17:12:00,63.2,38.5,30.13,WSW,257,0.0,4.0,40,0.00,,SCT065,0.00,VWS V14.01,2013-10-24 21:12:00,
2013-10-24 17:17:00,62.8,40.0,30.13,West,259,0.0,2.0,43,0.00,,SCT065,0.00,VWS V14.01,2013-10-24 21:17:00,
2013-10-24 17:22:00,62.2,38.2,30.13,West,264,0.0,2.0,41,0.00,,SCT065,0.00,VWS V14.01,2013-10-24 21:22:00,
2013-10-24 17:27:00,61.5,40.0,30.14,WSW,257,0.0,2.0,45,0.00,,SCT065,0.00,VWS V14.01,2013-10-24 21:27:00,
2013-10-24 17:32:00,61.2,40.8,30.14,SSE,164,0.0,1.0,47,0.00,,SCT065,0.00,VWS V14.01,2013-10-24 21:32:00,
2013-10-24 17:37:00,60.8,40.5,30.14,West,266,0.0,2.0,47,0.00,,SCT065,0.00,VWS V14.01,2013-10-24 21:37:00,
2013-10-24 17:42:00,60.4,40.6,30.14,South,184,0.0,3.0,48,0.00,,SCT065,0.00,VWS V14.01,2013-10-24 21:42:00,
2013-10-24 17:47:00,59.8,40.6,30.14,West,276,0.0,2.0,49,0.00,,SCT065,0.00,VWS V14.01,2013-10-24 21:47:00,
2013-10-24 17:52:00,59.5,40.9,30.14,SE,141,0.0,1.0,50,0.00,,SCT065,0.00,VWS V14.01,2013-10-24 21:52:00,
2013-10-24 17:57:00,59.1,42.0,30.14,SE,138,0.0,1.0,53,0.00,,SCT065,0.00,VWS V14.01,2013-10-24 21:57:00,
2013-10-24 18:02:00,58.9,42.3,30.14,SE,138,0.0,0.0,54,0.00,,BKN055,0.00,VWS V14.01,2013-10-24 22:02:00,
2013-10-24 18:07:00,58.6,42.5,30.14,SE,139,0.0,0.0,55,0.00,,BKN055,0.00,VWS V14.01,2013-10-24 22:07:00,
2013-10-24 18:12:00,58.3,42.2,30.15,East,79,0.0,0.0,55,0.00,,BKN055,0.00,VWS V14.01,2013-10-24 22:12:00,
2013-10-24 18:17:00,58.2,43.1,30.15,East,79,0.0,0.0,57,0.00,,BKN055,0.00,VWS V14.01,2013-10-24 22:17:00,
2013-10-24 18:22:00,58.1,43.0,30.15,East,79,0.0,0.0,57,0.00,,BKN055,0.00,VWS V14.01,2013-10-24 22:22:00,
2013-10-24 18:27:00,57.8,43.1,30.15,East,79,0.0,0.0,58,0.00,,BKN055,0.00,VWS V14.01,2013-10-24 22:27:00,
2013-10-24 18:32:00,57.7,43.9,30.15,East,79,0.0,0.0,60,0.00,,BKN055,0.00,VWS V14.01,2013-10-24 22:32:00,
2013-10-24 18:37:00,57.5,44.6,30.15,East,79,0.0,0.0,62,0.00,,BKN055,0.00,VWS V14.01,2013-10-24 22:37:00,
2013-10-24 18:42:00,57.2,44.7,30.15,East,79,0.0,0.0,63,0.00,,BKN055,0.00,VWS V14.01,2013-10-24 22:42:00,
2013-10-24 18:47:00,56.8,44.3,30.15,East,79,0.0,0.0,63,0.00,,BKN055,0.00,VWS V14.01,2013-10-24 22:47:00,
2013-10-24 18:52:00,56.1,44.1,30.15,East,79,0.0,0.0,64,0.00,,BKN055,0.00,VWS V14.01,2013-10-24 22:52:00,
2013-10-24 18:57:00,55.5,43.9,30.15,WSW,249,0.0,1.0,65,0.00,,BKN055,0.00,VWS V14.01,2013-10-24 22:57:00,
2013-10-24 19:02:00,55.1,44.3,30.15,WSW,248,0.0,0.0,67,0.00,,BKN055,0.00,VWS V14.01,2013-10-24 23:02:00,
2013-10-24 19:07:00,54.5,44.2,30.16,WSW,249,0.0,1.0,68,0.00,,BKN055,0.00,VWS V14.01,2013-10-24 23:07:00,
2013-10-24 19:12:00,54.0,44.5,30.16,WSW,249,0.0,0.0,70,0.00,,BKN055,0.00,VWS V14.01,2013-10-24 23:12:00,
2013-10-24 19:17:00,53.4,44.2,30.16,WSW,249,0.0,0.0,71,0.00,,BKN055,0.00,VWS V14.01,2013-10-24 23:17:00,
2013-10-24 19:22:00,52.9,44.5,30.16,WSW,248,0.0,0.0,73,0.00,,BKN055,0.00,VWS V14.01,2013-10-24 23:22:00,
2013-10-24 19:27:00,52.3,44.6,30.16,WSW,250,0.0,0.0,75,0.00,,BKN055,0.00,VWS V14.01,2013-10-24 23:27:00,
2013-10-24 19:32:00,51.9,44.9,30.16,WSW,250,0.0,0.0,77,0.00,,BKN055,0.00,VWS V14.01,2013-10-24 23:32:00,
2013-10-24 19:37:00,51.6,44.6,30.17,WSW,250,0.0,0.0,77,0.00,,BKN055,0.00,VWS V14.01,2013-10-24 23:37:00,
2013-10-24 19:42:00,51.3,44.3,30.17,WSW,250,0.0,0.0,77,0.00,,BKN055,0.00,VWS V14.01,2013-10-24 23:42:00,
2013-10-24 19:47:00,51.0,44.7,30.17,WSW,250,0.0,0.0,79,0.00,,BKN055,0.00,VWS V14.01,2013-10-24 23:47:00,
2013-10-24 19:52:00,50.8,44.9,30.17,WSW,250,0.0,0.0,80,0.00,,BKN055,0.00,VWS V14.01,2013-10-24 23:52:00,
2013-10-24 19:57:00,50.6,45.6,30.18,WSW,250,0.0,0.0,83,0.00,,BKN055,0.00,VWS V14.01,2013-10-24 23:57:00,
2013-10-24 20:02:00,50.5,45.2,30.18,WSW,250,0.0,0.0,82,0.00,,BKN055,0.00,VWS V14.01,2013-10-25 00:02:00,
2013-10-24 20:07:00,50.5,44.9,30.18,WSW,250,0.0,0.0,81,0.00,,BKN055,0.00,VWS V14.01,2013-10-25 00:07:00,
2013-10-24 20:12:00,50.7,44.1,30.18,WSW,250,0.0,0.0,78,0.00,,BKN055,0.00,VWS V14.01,2013-10-25 00:12:00,
2013-10-24 20:17:00,50.9,44.3,30.18,WSW,250,0.0,0.0,78,0.00,,BKN055,0.00,VWS V14.01,2013-10-25 00:17:00,
2013-10-24 20:22:00,50.9,44.3,30.18,WSW,250,0.0,0.0,78,0.00,,BKN055,0.00,VWS V14.01,2013-10-25 00:22:00,
2013-10-24 20:27:00,50.8,44.5,30.19,WSW,250,0.0,0.0,79,0.00,,BKN055,0.00,VWS V14.01,2013-10-25 00:27:00,
2013-10-24 20:32:00,50.6,44.7,30.19,WSW,250,0.0,0.0,80,0.00,,BKN055,0.00,VWS V14.01,2013-10-25 00:32:00,
2013-10-24 20:37:00,50.4,44.8,30.19,WSW,250,0.0,0.0,81,0.00,,BKN055,0.00,VWS V14.01,2013-10-25 00:37:00,
2013-10-24 20:42:00,50.1,44.5,30.19,WSW,250,0.0,0.0,81,0.00,,BKN055,0.00,VWS V14.01,2013-10-25 00:42:00,
2013-10-24 20:47:00,49.9,44.3,30.19,WSW,250,0.0,0.0,81,0.00,,BKN055,0.00,VWS V14.01,2013-10-25 00:47:00,
2013-10-24 20:52:00,49.5,43.9,30.19,WSW,250,0.0,0.0,81,0.00,,BKN055,0.00,VWS V14.01,2013-10-25 00:52:00,
2013-10-24 20:57:00,49.3,43.7,30.19,WSW,250,0.0,0.0,81,0.00,,BKN055,0.00,VWS V14.01,2013-10-25 00:57:00,
2013-10-24 21:02:00,48.9,43.7,30.19,WSW,250,0.0,0.0,82,0.00,,FEW055,0.00,VWS V14.01,2013-10-25 01:02:00,
2013-10-24 21:07:00,48.7,43.8,30.19,WSW,250,0.0,0.0,83,0.00,,FEW055,0.00,VWS V14.01,2013-10-25 01:07:00,
2013-10-24 21:12:00,48.5,43.6,30.19,WSW,250,0.0,0.0,83,0.00,,FEW055,0.00,VWS V14.01,2013-10-25 01:12:00,
2013-10-24 21:17:00,48.3,43.7,30.19,WSW,250,0.0,0.0,84,0.00,,FEW055,0.00,VWS V14.01,2013-10-25 01:17:00,
2013-10-24 21:22:00,48.0,43.4,30.19,WSW,250,0.0,0.0,84,0.00,,FEW055,0.00,VWS V14.01,2013-10-25 01:22:00,
2013-10-24 21:27:00,47.8,43.8,30.19,WSW,250,0.0,0.0,86,0.00,,FEW055,0.00,VWS V14.01,2013-10-25 01:27:00,
2013-10-24 21:32:00,47.7,44.0,30.19,WSW,250,0.0,0.0,87,0.00,,FEW055,0.00,VWS V14.01,2013-10-25 01:32:00,
2013-10-24 21:37:00,47.8,44.4,30.20,WSW,250,0.0,0.0,88,0.00,,FEW055,0.00,VWS V14.01,2013-10-25 01:37:00,
2013-10-24 21:42:00,47.7,44.3,30.20,WSW,250,0.0,0.0,88,0.00,,FEW055,0.00,VWS V14.01,2013-10-25 01:42:00,
2013-10-24 21:47:00,47.6,44.5,30.19,WSW,250,0.0,0.0,89,0.00,,FEW055,0.00,VWS V14.01,2013-10-25 01:47:00,
2013-10-24 21:52:00,47.4,44.3,30.20,WSW,250,0.0,0.0,89,0.00,,FEW055,0.00,VWS V14.01,2013-10-25 01:52:00,
2013-10-24 21:57:00,47.2,44.4,30.20,WSW,250,0.0,0.0,90,0.00,,FEW055,0.00,VWS V14.01,2013-10-25 01:57:00,
2013-10-24 22:02:00,46.9,43.8,30.20,WSW,250,0.0,0.0,89,0.00,,FEW050,0.00,VWS V14.01,2013-10-25 02:02:00,
2013-10-24 22:07:00,46.5,43.4,30.20,WSW,250,0.0,0.0,89,0.00,,FEW050,0.00,VWS V14.01,2013-10-25 02:07:00,
2013-10-24 22:12:00,46.2,43.4,30.20,WSW,250,0.0,0.0,90,0.00,,FEW050,0.00,VWS V14.01,2013-10-25 02:12:00,
2013-10-24 22:17:00,46.1,43.6,30.20,WSW,250,0.0,0.0,91,0.00,,FEW050,0.00,VWS V14.01,2013-10-25 02:17:00,
2013-10-24 22:22:00,46.0,43.8,30.20,WSW,250,0.0,0.0,92,0.00,,FEW050,0.00,VWS V14.01,2013-10-25 02:22:00,
2013-10-24 22:27:00,46.0,43.8,30.21,WSW,250,0.0,0.0,92,0.00,,FEW050,0.00,VWS V14.01,2013-10-25 02:27:00,
2013-10-24 22:32:00,46.0,43.8,30.21,WSW,250,0.0,0.0,92,0.00,,FEW050,0.00,VWS V14.01,2013-10-25 02:32:00,
2013-10-24 22:37:00,46.0,43.8,30.21,WSW,250,0.0,0.0,92,0.00,,FEW050,0.00,VWS V14.01,2013-10-25 02:37:00,
2013-10-24 22:42:00,46.0,44.1,30.21,WSW,250,0.0,0.0,93,0.00,,FEW050,0.00,VWS V14.01,2013-10-25 02:42:00,
2013-10-24 22:47:00,46.0,43.8,30.21,WSW,250,0.0,0.0,92,0.00,,FEW050,0.00,VWS V14.01,2013-10-25 02:47:00,
2013-10-24 22:52:00,45.9,43.7,30.21,WSW,250,0.0,0.0,92,0.00,,FEW050,0.00,VWS V14.01,2013-10-25 02:52:00,
2013-10-24 22:57:00,45.8,43.9,30.21,WSW,250,0.0,0.0,93,0.00,,FEW050,0.00,VWS V14.01,2013-10-25 02:57:00,
2013-10-24 23:02:00,45.8,43.9,30.21,WSW,251,0.0,0.0,93,0.00,,SCT055,0.00,VWS V14.01,2013-10-25 03:02:00,
2013-10-24 23:07:00,45.7,43.8,30.21,WSW,250,0.0,0.0,93,0.00,,SCT055,0.00,VWS V14.01,2013-10-25 03:07:00,
2013-10-24 23:12:00,45.6,43.7,30.21,WSW,251,0.0,0.0,93,0.00,,SCT055,0.00,VWS V14.01,2013-10-25 03:12:00,
2013-10-24 23:17:00,45.4,43.5,30.22,WSW,250,0.0,0.0,93,0.00,,SCT055,0.00,VWS V14.01,2013-10-25 03:17:00,
2013-10-24 23:22:00,45.3,43.4,30.22,WSW,251,0.0,0.0,93,0.00,,SCT055,0.00,VWS V14.01,2013-10-25 03:22:00,
2013-10-24 23:27:00,45.1,43.5,30.22,WSW,250,0.0,0.0,94,0.00,,SCT055,0.00,VWS V14.01,2013-10-25 03:27:00,
2013-10-24 23:32:00,44.9,43.3,30.22,WSW,250,0.0,0.0,94,0.00,,SCT055,0.00,VWS V14.01,2013-10-25 03:32:00,
2013-10-24 23:37:00,44.9,43.3,30.22,WSW,250,0.0,1.0,94,0.00,,SCT055,0.00,VWS V14.01,2013-10-25 03:37:00,
2013-10-24 23:42:00,44.9,43.3,30.22,WSW,250,0.0,0.0,94,0.00,,SCT055,0.00,VWS V14.01,2013-10-25 03:42:00,
2013-10-24 23:47:00,44.9,43.3,30.22,WSW,250,0.0,0.0,94,0.00,,SCT055,0.00,VWS V14.01,2013-10-25 03:47:00,
2013-10-24 23:52:00,45.3,43.4,30.22,NW,316,0.0,1.0,93,0.00,,SCT055,0.00,VWS V14.01,2013-10-25 03:52:00,
2013-10-24 23:57:00,45.6,43.1,30.22,NW,316,0.0,0.0,91,0.00,,SCT055,0.00,VWS V14.01,2013-10-25 03:57:00,